createdAt,value
2022-09-24T00:01:43.541Z,41.67
2022-09-24T00:04:13.511Z,41.78
2022-09-24T00:06:44.449Z,41.47
2022-09-24T00:09:13.553Z,41.56
2022-09-24T00:11:43.073Z,41.70
2022-09-24T00:14:11.141Z,41.58
2022-09-24T00:16:41.463Z,41.79
2022-09-24T00:19:11.663Z,41.60
2022-09-24T00:21:41.522Z,41.90
2022-09-24T00:24:11.351Z,41.89
2022-09-24T00:26:50.187Z,41.76
2022-09-24T00:29:21.131Z,41.87
2022-09-24T00:31:49.992Z,41.82
2022-09-24T00:34:19.768Z,41.82
2022-09-24T00:36:48.447Z,41.79
2022-09-24T00:39:17.280Z,41.71
2022-09-24T00:41:47.945Z,41.92
2022-09-24T00:44:54.459Z,41.71
2022-09-24T00:47:29.125Z,41.91
2022-09-24T00:50:06.338Z,41.84
2022-09-24T00:52:35.225Z,41.79
2022-09-24T00:55:03.140Z,41.74
2022-09-24T00:57:31.953Z,42.03
2022-09-24T01:00:00.510Z,41.67
2022-09-24T01:02:28.500Z,41.83
2022-09-24T01:04:58.258Z,41.60
2022-09-24T01:07:26.574Z,41.63
2022-09-24T01:09:54.574Z,41.71
2022-09-24T01:12:33.516Z,41.72
2022-09-24T01:15:11.497Z,41.91
2022-09-24T01:17:49.899Z,41.75
2022-09-24T01:20:37.573Z,41.80
2022-09-24T01:23:36.511Z,41.86
2022-09-24T01:26:19.118Z,41.67
2022-09-24T01:29:06.190Z,41.89
2022-09-24T01:31:41.827Z,41.90
2022-09-24T01:34:12.439Z,41.83
2022-09-24T01:36:42.522Z,41.84
2022-09-24T01:39:11.037Z,41.93
2022-09-24T01:41:40.725Z,41.99
2022-09-24T01:44:09.399Z,42.05
2022-09-24T01:46:40.809Z,41.76
2022-09-24T01:49:09.546Z,41.78
2022-09-24T01:51:44.201Z,42.09
2022-09-24T01:54:21.997Z,41.86
2022-09-24T01:56:57.106Z,42.11
2022-09-24T01:59:30.083Z,41.60
2022-09-24T02:02:05.736Z,41.74
2022-09-24T02:04:40.227Z,41.89
2022-09-24T02:07:16.263Z,41.80
2022-09-24T02:09:45.128Z,41.84
2022-09-24T02:12:17.377Z,42.11
2022-09-24T02:14:54.376Z,41.94
2022-09-24T02:17:26.694Z,41.71
2022-09-24T02:19:57.957Z,42.01
2022-09-24T02:22:27.138Z,41.76
2022-09-24T02:24:57.633Z,42.08
2022-09-24T02:27:28.579Z,41.63
2022-09-24T02:29:56.969Z,41.75
2022-09-24T02:32:30.996Z,41.74
2022-09-24T02:35:02.717Z,41.89
2022-09-24T02:37:35.885Z,41.70
2022-09-24T02:40:05.804Z,41.89
2022-09-24T02:42:34.070Z,41.93
2022-09-24T02:45:02.350Z,41.93
2022-09-24T02:47:31.789Z,41.91
2022-09-24T02:50:00.296Z,41.74
2022-09-24T02:52:28.437Z,41.94
2022-09-24T02:54:56.612Z,41.68
2022-09-24T02:57:24.490Z,42.08
2022-09-24T02:59:52.488Z,41.94
2022-09-24T03:02:20.491Z,41.66
2022-09-24T03:04:50.136Z,42.08
2022-09-24T03:07:18.350Z,41.95
2022-09-24T03:09:46.192Z,42.08
2022-09-24T03:12:14.110Z,42.12
2022-09-24T03:14:42.009Z,41.84
2022-09-24T03:17:09.885Z,41.68
2022-09-24T03:19:37.773Z,41.82
2022-09-24T03:22:07.009Z,42.04
2022-09-24T03:24:34.901Z,41.72
2022-09-24T03:27:02.840Z,42.04
2022-09-24T03:29:44.627Z,41.96
2022-09-24T03:32:12.529Z,41.70
2022-09-24T03:34:40.453Z,42.24
2022-09-24T03:37:09.721Z,41.99
2022-09-24T03:39:37.598Z,42.21
2022-09-24T03:42:05.636Z,41.84
2022-09-24T03:44:33.495Z,41.93
2022-09-24T03:47:01.430Z,41.95
2022-09-24T03:49:29.959Z,41.82
2022-09-24T03:51:57.818Z,42.19
2022-09-24T03:54:27.109Z,41.89
2022-09-24T03:56:55.076Z,42.08
2022-09-24T03:59:23.153Z,41.94
2022-09-24T04:01:51.175Z,41.95
2022-09-24T04:04:19.114Z,41.86
2022-09-24T04:06:46.969Z,41.94
2022-09-24T04:09:14.892Z,41.98
2022-09-24T04:11:44.789Z,41.98
2022-09-24T04:14:12.639Z,41.93
2022-09-24T04:16:40.618Z,41.92
2022-09-24T04:19:08.803Z,42.17
2022-09-24T04:21:36.654Z,41.92
2022-09-24T04:24:04.554Z,42.02
2022-09-24T04:26:32.439Z,42.33
2022-09-24T04:29:01.842Z,42.27
2022-09-24T04:31:30.326Z,42.22
2022-09-24T04:33:58.291Z,42.35
2022-09-24T04:36:26.494Z,42.14
2022-09-24T04:38:54.441Z,42.45
2022-09-24T04:41:22.302Z,42.36
2022-09-24T04:43:51.394Z,42.13
2022-09-24T04:46:20.700Z,42.29
2022-09-24T04:48:49.001Z,42.27
2022-09-24T04:51:17.718Z,42.21
2022-09-24T04:53:47.899Z,42.06
2022-09-24T04:56:15.823Z,41.96
2022-09-24T04:58:43.695Z,42.21
2022-09-24T05:01:13.327Z,42.03
2022-09-24T05:03:42.743Z,42.08
2022-09-24T05:06:10.752Z,41.88
2022-09-24T05:08:38.633Z,41.99
2022-09-24T05:11:07.161Z,41.93
2022-09-24T05:13:35.278Z,41.84
2022-09-24T05:16:03.598Z,42.09
2022-09-24T05:18:31.609Z,41.77
2022-09-24T05:21:00.863Z,42.16
2022-09-24T05:23:28.734Z,42.09
2022-09-24T05:26:14.329Z,42.21
2022-09-24T05:28:42.858Z,42.14
2022-09-24T05:31:10.837Z,42.15
2022-09-24T05:33:39.305Z,42.09
2022-09-24T05:36:08.801Z,41.80
2022-09-24T05:38:40.889Z,42.15
2022-09-24T05:41:09.510Z,41.89
2022-09-24T05:43:38.068Z,42.12
2022-09-24T05:46:06.489Z,42.22
2022-09-24T05:48:34.494Z,41.97
2022-09-24T05:51:02.494Z,41.99
2022-09-24T05:53:32.780Z,42.24
2022-09-24T05:56:00.802Z,42.39
2022-09-24T05:58:28.645Z,42.21
2022-09-24T06:00:56.565Z,42.22
2022-09-24T06:03:24.497Z,42.24
2022-09-24T06:05:52.818Z,42.14
2022-09-24T06:08:21.895Z,42.04
2022-09-24T06:10:51.152Z,42.25
2022-09-24T06:13:20.940Z,42.22
2022-09-24T06:15:48.884Z,42.36
2022-09-24T06:18:16.884Z,42.38
2022-09-24T06:20:44.849Z,42.27
2022-09-24T06:23:12.725Z,42.43
2022-09-24T06:25:41.321Z,42.25
2022-09-24T06:28:10.567Z,42.73
2022-09-24T06:30:39.908Z,42.62
2022-09-24T06:33:10.159Z,42.37
2022-09-24T06:35:38.639Z,42.58
2022-09-24T06:38:08.053Z,42.73
2022-09-24T06:40:37.691Z,42.53
2022-09-24T06:43:06.366Z,42.63
2022-09-24T06:45:36.203Z,42.52
2022-09-24T06:48:06.062Z,42.57
2022-09-24T06:50:35.789Z,42.52
2022-09-24T06:53:06.640Z,42.70
2022-09-24T06:55:35.124Z,42.57
2022-09-24T06:58:04.843Z,42.32
2022-09-24T07:00:33.075Z,42.25
2022-09-24T07:03:02.556Z,42.14
2022-09-24T07:05:31.227Z,42.52
2022-09-24T07:07:59.076Z,42.40
2022-09-24T07:10:27.476Z,42.40
2022-09-24T07:12:55.358Z,42.71
2022-09-24T07:15:23.254Z,42.52
2022-09-24T07:17:56.184Z,42.32
2022-09-24T07:20:28.198Z,42.55
2022-09-24T07:22:56.493Z,42.47
2022-09-24T07:25:24.694Z,42.36
2022-09-24T07:27:52.705Z,41.91
2022-09-24T07:30:20.808Z,42.31
2022-09-24T07:32:49.510Z,42.26
2022-09-24T07:35:18.262Z,42.29
2022-09-24T07:37:47.557Z,42.40
2022-09-24T07:40:15.736Z,42.49
2022-09-24T07:42:48.423Z,42.16
2022-09-24T07:45:17.265Z,42.11
2022-09-24T07:47:45.177Z,42.41
2022-09-24T07:50:13.758Z,42.55
2022-09-24T07:52:41.734Z,42.16
2022-09-24T07:55:11.081Z,42.42
2022-09-24T07:57:39.412Z,42.32
2022-09-24T08:00:09.054Z,42.62
2022-09-24T08:02:40.056Z,42.59
2022-09-24T08:05:08.598Z,42.53
2022-09-24T08:07:36.522Z,42.40
2022-09-24T08:10:05.008Z,42.44
2022-09-24T08:12:34.613Z,42.60
2022-09-24T08:15:02.556Z,42.70
2022-09-24T08:17:30.419Z,42.72
2022-09-24T08:19:58.809Z,42.65
2022-09-24T08:22:26.718Z,42.79
2022-09-24T08:24:54.943Z,42.65
2022-09-24T08:27:23.858Z,42.86
2022-09-24T08:29:53.356Z,42.82
2022-09-24T08:32:21.223Z,42.90
2022-09-24T08:34:49.083Z,43.01
2022-09-24T08:37:16.981Z,42.98
2022-09-24T08:39:44.882Z,43.08
2022-09-24T08:42:20.498Z,43.19
2022-09-24T08:45:08.305Z,42.90
2022-09-24T08:47:43.444Z,43.06
2022-09-24T08:50:17.432Z,42.99
2022-09-24T08:53:03.306Z,43.11
2022-09-24T08:55:38.718Z,42.77
2022-09-24T08:58:27.277Z,43.03
2022-09-24T09:01:00.136Z,43.11
2022-09-24T09:03:38.164Z,42.79
2022-09-24T09:06:13.632Z,42.94
2022-09-24T09:09:06.832Z,42.67
2022-09-24T09:11:37.888Z,42.77
2022-09-24T09:14:12.296Z,42.86
2022-09-24T09:16:48.454Z,42.48
2022-09-24T09:19:18.631Z,42.75
2022-09-24T09:21:52.721Z,42.47
2022-09-24T09:24:23.390Z,42.31
2022-09-24T09:26:55.278Z,42.51
2022-09-24T09:29:27.930Z,42.29
2022-09-24T09:32:07.705Z,42.10
2022-09-24T09:35:06.017Z,42.20
2022-09-24T09:37:41.410Z,42.38
2022-09-24T09:40:29.152Z,42.51
2022-09-24T09:43:03.244Z,42.97
2022-09-24T09:45:39.207Z,43.77
2022-09-24T09:48:12.952Z,44.88
2022-09-24T09:50:46.125Z,45.64
2022-09-24T09:53:22.053Z,46.02
2022-09-24T09:55:54.632Z,46.83
2022-09-24T09:58:25.371Z,47.32
2022-09-24T10:00:54.270Z,46.53
2022-09-24T10:03:24.895Z,46.39
2022-09-24T10:05:57.262Z,45.38
2022-09-24T10:08:26.346Z,45.47
2022-09-24T10:10:56.363Z,46.55
2022-09-24T10:13:25.241Z,46.81
2022-09-24T10:15:55.310Z,47.13
2022-09-24T10:18:31.560Z,47.15
2022-09-24T10:21:05.163Z,47.06
2022-09-24T10:23:36.679Z,46.73
2022-09-24T10:26:06.432Z,46.82
2022-09-24T10:28:53.445Z,47.18
2022-09-24T10:31:23.578Z,47.28
2022-09-24T10:33:55.193Z,47.00
2022-09-24T10:36:26.351Z,46.70
2022-09-24T10:39:04.632Z,46.41
2022-09-24T10:41:32.896Z,45.66
2022-09-24T10:44:04.902Z,45.14
2022-09-24T10:46:56.681Z,44.64
2022-09-24T10:49:36.799Z,44.20
2022-09-24T10:52:15.340Z,44.50
2022-09-24T10:54:59.122Z,44.42
2022-09-24T10:57:35.366Z,44.02
2022-09-24T11:00:10.624Z,43.68
2022-09-24T11:03:09.814Z,43.45
2022-09-24T11:05:42.745Z,43.31
2022-09-24T11:08:22.630Z,42.86
2022-09-24T11:11:04.390Z,42.56
2022-09-24T11:13:41.514Z,42.69
2022-09-24T11:16:44.029Z,42.59
2022-09-24T11:19:27.753Z,42.18
2022-09-24T11:22:07.838Z,42.08
2022-09-24T11:24:49.656Z,41.90
2022-09-24T11:27:36.305Z,41.72
2022-09-24T11:30:13.219Z,41.60
2022-09-24T11:32:54.306Z,41.45
2022-09-24T11:35:42.791Z,41.29
2022-09-24T11:38:18.045Z,41.02
2022-09-24T11:41:03.806Z,41.03
2022-09-24T11:43:57.416Z,40.65
2022-09-24T11:46:45.184Z,40.58
2022-09-24T11:49:29.368Z,40.50
2022-09-24T11:52:04.488Z,40.09
2022-09-24T11:54:38.884Z,39.89
2022-09-24T11:57:16.194Z,39.70
2022-09-24T11:59:51.825Z,39.51
2022-09-24T12:02:25.227Z,39.50
2022-09-24T12:05:00.733Z,39.40
2022-09-24T12:07:35.571Z,39.20
2022-09-24T12:10:14.872Z,39.21
2022-09-24T12:12:48.840Z,39.27
2022-09-24T12:15:22.406Z,38.87
2022-09-24T12:17:57.852Z,38.90
2022-09-24T12:20:28.860Z,39.04
2022-09-24T12:23:03.723Z,39.16
2022-09-24T12:25:40.185Z,38.93
2022-09-24T12:28:13.105Z,39.00
2022-09-24T12:31:19.083Z,39.13
2022-09-24T12:33:57.212Z,39.17
2022-09-24T12:36:33.205Z,39.21
2022-09-24T12:39:06.181Z,39.19
2022-09-24T12:41:35.452Z,39.16
2022-09-24T12:44:14.487Z,39.25
2022-09-24T12:46:49.430Z,39.31
2022-09-24T12:49:26.809Z,39.30
2022-09-24T12:51:56.558Z,39.35
2022-09-24T12:54:28.731Z,39.46
2022-09-24T12:57:08.044Z,39.65
2022-09-24T12:59:48.655Z,39.49
2022-09-24T13:02:19.858Z,39.66
2022-09-24T13:05:04.048Z,39.61
2022-09-24T13:07:34.865Z,39.75
2022-09-24T13:10:25.229Z,39.76
2022-09-24T13:12:54.203Z,39.59
2022-09-24T13:15:33.328Z,39.68
2022-09-24T13:18:18.019Z,39.55
2022-09-24T13:20:50.340Z,39.74
2022-09-24T13:23:35.273Z,39.74
2022-09-24T13:26:05.640Z,39.65
2022-09-24T13:28:42.629Z,39.60
2022-09-24T13:31:23.683Z,39.55
2022-09-24T13:33:55.023Z,39.51
2022-09-24T13:36:29.514Z,39.37
2022-09-24T13:39:02.412Z,39.32
2022-09-24T13:41:42.042Z,39.13
2022-09-24T13:44:18.236Z,39.29
2022-09-24T13:46:51.250Z,39.22
2022-09-24T13:49:21.680Z,39.11
2022-09-24T13:52:00.785Z,39.12
2022-09-24T13:54:34.923Z,39.04
2022-09-24T13:57:12.309Z,39.20
2022-09-24T13:59:40.430Z,39.12
2022-09-24T14:05:03.582Z,39.27
2022-09-24T14:07:31.738Z,39.22
2022-09-24T14:10:04.669Z,38.92
2022-09-24T14:12:32.635Z,38.85
2022-09-24T14:15:00.707Z,38.93
2022-09-24T14:17:28.641Z,39.08
2022-09-24T14:19:57.799Z,38.97
2022-09-24T14:22:31.046Z,38.83
2022-09-24T14:25:04.175Z,38.76
2022-09-24T14:27:33.728Z,38.87
2022-09-24T14:30:03.861Z,39.03
2022-09-24T14:32:34.237Z,39.01
2022-09-24T14:35:06.376Z,39.09
2022-09-24T14:37:39.824Z,39.07
2022-09-24T14:40:13.566Z,39.19
2022-09-24T14:42:44.986Z,39.26
2022-09-24T14:45:21.527Z,39.15
2022-09-24T14:48:00.125Z,39.13
2022-09-24T14:50:35.371Z,39.41
2022-09-24T14:53:14.010Z,39.32
2022-09-24T14:55:46.571Z,39.26
2022-09-24T14:58:25.720Z,39.36
2022-09-24T15:00:57.443Z,39.54
2022-09-24T15:03:31.109Z,39.21
2022-09-24T15:06:18.965Z,39.22
2022-09-24T15:08:57.419Z,39.25
2022-09-24T15:11:28.394Z,39.14
2022-09-24T15:14:01.238Z,39.01
2022-09-24T15:16:33.635Z,38.97
2022-09-24T15:19:17.615Z,38.83
2022-09-24T15:21:46.208Z,38.86
2022-09-24T15:24:15.736Z,38.88
2022-09-24T15:26:47.815Z,38.92
2022-09-24T15:29:24.874Z,38.81
2022-09-24T15:31:53.433Z,38.76
2022-09-24T15:34:21.628Z,38.60
2022-09-24T15:36:51.634Z,38.39
2022-09-24T15:39:21.214Z,38.22
2022-09-24T15:41:49.143Z,38.12
2022-09-24T15:44:23.012Z,38.45
2022-09-24T15:46:52.107Z,38.35
2022-09-24T15:49:22.145Z,38.35
2022-09-24T15:51:52.213Z,38.33
2022-09-24T15:54:22.418Z,38.40
2022-09-24T15:56:54.521Z,38.56
2022-09-24T15:59:23.556Z,38.72
2022-09-24T16:01:55.406Z,38.78
2022-09-24T16:04:23.338Z,39.13
2022-09-24T16:06:51.181Z,39.17
2022-09-24T16:09:19.133Z,39.40
2022-09-24T16:11:48.384Z,39.53
2022-09-24T16:14:16.294Z,39.57
2022-09-24T16:16:44.237Z,39.69
2022-09-24T16:19:12.567Z,39.96
2022-09-24T16:21:40.728Z,39.87
2022-09-24T16:24:08.622Z,39.68
2022-09-24T16:26:37.385Z,39.77
2022-09-24T16:29:10.024Z,40.14
2022-09-24T16:31:38.122Z,40.13
2022-09-24T16:34:06.154Z,40.12
2022-09-24T16:36:34.003Z,39.93
2022-09-24T16:39:02.048Z,40.33
2022-09-24T16:41:34.321Z,40.33
2022-09-24T16:44:02.744Z,40.48
2022-09-24T16:46:32.196Z,40.36
2022-09-24T16:49:00.107Z,40.25
2022-09-24T16:51:28.007Z,40.37
2022-09-24T16:53:56.582Z,40.50
2022-09-24T16:56:24.767Z,40.37
2022-09-24T16:58:52.944Z,40.41
2022-09-24T17:01:22.731Z,40.39
2022-09-24T17:03:53.734Z,40.76
2022-09-24T17:06:24.036Z,40.34
2022-09-24T17:09:09.983Z,40.60
2022-09-24T17:11:40.093Z,40.67
2022-09-24T17:14:08.490Z,40.79
2022-09-24T17:16:36.493Z,40.90
2022-09-24T17:19:08.081Z,40.95
2022-09-24T17:21:36.770Z,40.64
2022-09-24T17:24:05.012Z,40.86
2022-09-24T17:26:32.913Z,41.16
2022-09-24T17:29:00.815Z,40.87
2022-09-24T17:31:28.784Z,40.95
2022-09-24T17:33:57.356Z,40.99
2022-09-24T17:36:28.261Z,41.02
2022-09-24T17:38:59.252Z,40.94
2022-09-24T17:41:28.689Z,41.13
2022-09-24T17:43:58.660Z,41.23
2022-09-24T17:46:28.880Z,41.19
2022-09-24T17:48:59.479Z,41.10
2022-09-24T17:51:32.633Z,41.05
2022-09-24T17:54:02.397Z,41.37
2022-09-24T17:56:33.104Z,41.27
2022-09-24T17:59:01.053Z,41.21
2022-09-24T18:01:33.440Z,41.34
2022-09-24T18:04:01.768Z,41.40
2022-09-24T18:06:33.023Z,41.58
2022-09-24T18:09:02.514Z,41.47
2022-09-24T18:11:32.841Z,41.47
2022-09-24T18:14:02.772Z,41.66
2022-09-24T18:16:32.418Z,41.47
2022-09-24T18:19:01.426Z,41.28
2022-09-24T18:21:31.753Z,41.73
2022-09-24T18:24:01.257Z,41.36
2022-09-24T18:26:31.599Z,41.39
2022-09-24T18:29:01.956Z,41.40
2022-09-24T18:31:31.087Z,41.37
2022-09-24T18:34:03.970Z,41.46
2022-09-24T18:36:34.400Z,41.59
2022-09-24T18:39:03.060Z,41.31
2022-09-24T18:41:31.812Z,41.53
2022-09-24T18:44:00.531Z,41.37
2022-09-24T18:46:30.411Z,41.34
2022-09-24T18:48:59.676Z,41.49
2022-09-24T18:51:30.150Z,41.67
2022-09-24T18:54:01.302Z,41.35
2022-09-24T18:56:29.780Z,41.48
2022-09-24T18:58:59.469Z,41.60
2022-09-24T19:01:28.081Z,41.37
2022-09-24T19:03:57.270Z,41.19
2022-09-24T19:06:25.629Z,41.28
2022-09-24T19:08:53.677Z,41.48
2022-09-24T19:11:24.598Z,41.63
2022-09-24T19:13:54.904Z,41.30
2022-09-24T19:16:26.332Z,41.48
2022-09-24T19:18:55.738Z,41.49
2022-09-24T19:21:25.206Z,41.29
2022-09-24T19:23:54.926Z,41.67
2022-09-24T19:26:28.238Z,41.41
2022-09-24T19:28:57.330Z,41.24
2022-09-24T19:31:29.940Z,41.21
2022-09-24T19:33:59.024Z,41.30
2022-09-24T19:36:27.957Z,41.20
2022-09-24T19:38:56.398Z,41.29
2022-09-24T19:41:27.559Z,41.47
2022-09-24T19:43:58.580Z,41.29
2022-09-24T19:46:28.393Z,41.36
2022-09-24T19:48:58.811Z,41.50
2022-09-24T19:51:29.551Z,41.16
2022-09-24T19:54:01.122Z,41.10
2022-09-24T19:56:32.455Z,41.09
2022-09-24T19:59:02.489Z,41.49
2022-09-24T20:01:32.535Z,41.08
2022-09-24T20:04:04.457Z,41.40
2022-09-24T20:06:34.413Z,41.35
2022-09-24T20:09:02.892Z,41.28
2022-09-24T20:11:33.018Z,41.29
2022-09-24T20:14:02.065Z,41.24
2022-09-24T20:16:32.560Z,41.13
2022-09-24T20:19:01.656Z,41.44
2022-09-24T20:21:34.640Z,41.33
2022-09-24T20:24:04.347Z,41.43
2022-09-24T20:26:52.159Z,41.36
2022-09-24T20:29:22.116Z,41.42
2022-09-24T20:31:53.536Z,41.32
2022-09-24T20:34:23.434Z,41.21
2022-09-24T20:36:51.794Z,41.33
2022-09-24T20:39:20.142Z,41.05
2022-09-24T20:41:50.229Z,41.46
2022-09-24T20:44:18.505Z,41.34
2022-09-24T20:46:46.402Z,41.33
2022-09-24T20:49:22.902Z,40.98
2022-09-24T20:51:56.190Z,41.08
2022-09-24T20:54:26.151Z,41.09
2022-09-24T20:56:55.936Z,40.98
2022-09-24T20:59:25.035Z,41.44
2022-09-24T21:01:53.296Z,41.40
2022-09-24T21:04:22.257Z,41.10
2022-09-24T21:06:50.828Z,41.39
2022-09-24T21:09:18.914Z,41.31
2022-09-24T21:11:47.864Z,41.31
2022-09-24T21:14:17.857Z,41.12
2022-09-24T21:16:46.005Z,41.16
2022-09-24T21:19:15.515Z,41.06
2022-09-24T21:21:43.649Z,41.17
2022-09-24T21:24:14.373Z,41.35
2022-09-24T21:26:44.898Z,40.98
2022-09-24T21:29:16.456Z,41.38
2022-09-24T21:31:47.960Z,41.07
2022-09-24T21:34:18.008Z,40.94
2022-09-24T21:36:46.535Z,41.10
2022-09-24T21:39:16.403Z,41.00
2022-09-24T21:41:45.194Z,41.24
2022-09-24T21:44:16.145Z,41.25
2022-09-24T21:46:46.163Z,41.08
2022-09-24T21:49:14.175Z,41.44
2022-09-24T21:51:43.349Z,41.13
2022-09-24T21:54:15.417Z,41.36
2022-09-24T21:56:43.685Z,41.43
2022-09-24T21:59:25.730Z,41.40
2022-09-24T22:01:55.940Z,41.00
2022-09-24T22:04:24.248Z,41.37
2022-09-24T22:06:52.594Z,41.28
2022-09-24T22:09:21.545Z,41.34
2022-09-24T22:11:51.423Z,41.49
2022-09-24T22:14:19.561Z,41.23
2022-09-24T22:16:47.488Z,41.37
2022-09-24T22:19:16.886Z,41.48
2022-09-24T22:21:45.228Z,41.77
2022-09-24T22:24:13.107Z,41.62
2022-09-24T22:26:41.088Z,41.50
2022-09-24T22:29:08.940Z,41.72
2022-09-24T22:31:36.922Z,41.41
2022-09-24T22:34:21.921Z,41.36
2022-09-24T22:36:51.560Z,41.38
2022-09-24T22:39:19.480Z,41.56
2022-09-24T22:41:47.517Z,41.58
2022-09-24T22:44:15.535Z,41.66
2022-09-24T22:46:43.461Z,41.60
2022-09-24T22:49:11.921Z,41.57
2022-09-24T22:51:39.964Z,41.31
2022-09-24T22:54:10.197Z,41.25
2022-09-24T22:56:38.292Z,41.62
2022-09-24T22:59:07.185Z,41.27
2022-09-24T23:01:39.630Z,41.71
2022-09-24T23:04:07.649Z,41.57
2022-09-24T23:06:35.587Z,41.58
2022-09-24T23:09:03.866Z,41.49
2022-09-24T23:11:35.204Z,41.26
2022-09-24T23:14:04.998Z,41.20
2022-09-24T23:16:34.994Z,41.36
2022-09-24T23:19:06.202Z,41.25
2022-09-24T23:21:35.223Z,41.08
2022-09-24T23:24:05.644Z,41.30
2022-09-24T23:26:35.313Z,41.31
2022-09-24T23:29:03.252Z,40.98
2022-09-24T23:31:33.276Z,41.10
2022-09-24T23:34:01.965Z,41.14
2022-09-24T23:36:32.239Z,40.92
2022-09-24T23:39:01.090Z,41.08
2022-09-24T23:41:31.610Z,40.90
2022-09-24T23:44:01.214Z,41.02
2022-09-24T23:46:29.604Z,41.16
2022-09-24T23:48:57.944Z,40.89
2022-09-24T23:51:26.054Z,40.87
2022-09-24T23:53:54.040Z,40.96
2022-09-24T23:56:22.063Z,40.75
2022-09-24T23:58:50.322Z,41.04
